Home | Sell Offers | Buy Offers | Chemical Data | My 21ChemnetWelcome to 21chemnet.com. Sign In | Join Free
Product Suppliers| Buy offers  
Product Suppliers Buy offers  
Product| Suppliers Buy offers  
 CAS NoProduct NameCompany NamePostDate
A B C D E F G H I J K L M N O P Q R S T U V W X Y Z 1 2 3 4 5 6 7 8 9
 1401-55-4Tannic Acid(Tech Grade) AoWei Science and Technology Co., Ltd.2019/4/22 15:40:54
 1034-01-1n-Octyl gallate AoWei Science and Technology Co., Ltd.2019/4/22 15:40:44
 118-41-23,4,5-Trimethoxy benzoic acid AoWei Science and Technology Co., Ltd.2019/4/22 15:40:34
 1916-07-0Methyl 3,4,5-trimethoxybenzoate AoWei Science and Technology Co., Ltd.2019/4/22 15:40:23
 1401-55-4Tannic Acid(Dyes Grade) AoWei Science and Technology Co., Ltd.2019/4/22 15:39:19
 1401-55-4Tannic Acid(Pharmaceutical Grade) AoWei Science and Technology Co., Ltd.2019/4/22 15:39:11
 86-81-73,4,5-Trimethoxybenzaldehyde AoWei Science and Technology Co., Ltd.2019/4/22 15:39:02
 87-66-1Pyrogallol AoWei Science and Technology Co., Ltd.2019/4/22 15:38:52
 50-00-9silent wall clock THNclock2019/4/19 13:37:27
 50-00-8mantel clocks THNclock2019/4/19 13:36:56
 50-00-7digital wall clock THNclock2019/4/19 13:36:21
 50-00-6pendulum wall clock THNclock2019/4/19 13:35:58
 50-00-5wall clock online THNclock2019/4/19 13:35:30
 50-00-4giant wall clock THNclock2019/4/19 13:35:00
 50-00-3rustic wall clock THNclock2019/4/19 13:34:35
 50-00-2wall clocks uk THNclock2019/4/19 13:34:11
 50-00-1 extra large wall clocks THNclock2019/4/19 13:33:44
 50-00-9practice tennis balls TGEtennisball2019/4/19 13:22:07
 50-00-8black tennis balls TGEtennisball2019/4/19 13:21:40
 50-00-7giant tennis ball TGEtennisball2019/4/19 13:21:11
 50-00-6red tennis ball TGEtennisball2019/4/19 13:20:41
 50-00-4tennis balls online TGEtennisball2019/4/19 13:20:13
 50-00-3orange tennis balls TGEtennisball2019/4/19 13:19:44
 50-00-3buy tennis balls TGEtennisball2019/4/19 13:19:07
 50-00-2tennis ball hopper TGEtennisball2019/4/19 13:18:43
 50-00-1bulk tennis balls TGEtennisball2019/4/19 13:18:13
 50-00-9flip flop brand shoes TNE flip flop2019/4/19 13:04:43
 50-00-8platform flip flops TNE flip flop2019/4/19 13:04:05
 50-00-7bulk flip flops TNE flip flop2019/4/19 13:03:23
 50-00-7black flip flops TNE flip flop2019/4/19 11:31:15
 50-00-6white flip flops TNE flip flop2019/4/19 11:30:45
 50-00-5silver flip flops TNE flip flop2019/4/19 11:30:19
 50-00-4mens leather flip flops TNE flip flop2019/4/19 11:29:17
 50-00-3flip flop brand TNE flip flop2019/4/19 11:28:41
 50-00-2flip flop shop TNE flip flop2019/4/19 11:28:12
 50-00-1mens flip flops TNE flip flop2019/4/19 11:27:33
 60-00-2PVC LAYFLAT HOSE MD Hangzhou FuYang XingDa Tools Co., Ltd.2019/4/18 14:41:58
 15151-21-2 P2NP skype kerry-alice1 wnjig company2019/4/17 17:13:43
 15151-21-2 BMDP, bmdp skype kerry-alice1 wnjig company2019/4/17 17:13:11
 15151-21-2EUtylone skype kerry-alice1 wnjig company2019/4/17 17:12:54
 65612-21-5PMK sell skype kerry-alice1 wnjig company2019/4/17 17:12:25
 263409-96-7HEP sell skype kerry-alice1 wnjig company2019/4/17 17:12:00
 15151-21-2ProName: Low price Adrafil skype kerry-alice1 wnjig company2019/4/17 17:11:10
 40054-69-1Clonazolam Diclazepam Etizolam Flubromazepam Flubromazolam Fonazepam Wuhan Manley Biological Technology Co.,Ltd2019/4/15 16:01:30
 40054-69-1sell 1P-LSD 3-meo-pcp Etizolam 25i-NBOH Acb-DMT a-pvp bkebdp 5fmdmb2201 Wuhan Manley Biological Technology Co.,Ltd2019/4/12 17:29:39
 40054-69-1etizolam Skype:hellengaga2 Wuhan Manley Biological Technology Co.,Ltd2019/4/12 17:28:42
 60-00-1BEARING ASSEMBLY Huzhou Deerfu Automobile Parts Co., Ltd.2019/4/12 10:58:25
 50-00-1XU Series Cross Roller Bearing Henan Zengkun Machinery Equipment Co.,ltd.2019/4/10 15:42:10
 60-00-2Eyeliner Pen EYE-01 Yuyao Solo Beauty Cosmetic Packging Co., Ltd2019/4/3 13:41:53
 50-00-1BEACH CHAIR Inshare Furniture Co., Ltd2019/4/1 13:51:22
 68131-77-1Aromatically modified C5 hydrocarbon resin PUYNAG JITENG CHEMICAL CO.,LTD.2019/3/26 20:56:46
 64742-16-1C9 Dark Beads Petroleum Resin PUYNAG JITENG CHEMICAL CO.,LTD.2019/3/26 20:55:46
 64742-16-1light color C9 hydrocarbon resin PUYNAG JITENG CHEMICAL CO.,LTD.2019/3/26 20:54:14
 64742-16-1C9 petroleum hydrocarbon resin PUYNAG JITENG CHEMICAL CO.,LTD.2019/3/26 20:53:15
 63393-89-5coumarone indene resin PUYNAG JITENG CHEMICAL CO.,LTD.2019/3/26 20:51:50
 68131-77-1C5 aliphatic hydrocarbon resin for hot melt adhesives PUYNAG JITENG CHEMICAL CO.,LTD.2019/3/26 20:50:32
 68131-77-1 C5 hydrocarbon resin especially for hot melt road marking PUYNAG JITENG CHEMICAL CO.,LTD.2019/3/26 20:49:36
 68131-77-1C5 hydrocarbon resin PUYNAG JITENG CHEMICAL CO.,LTD.2019/3/26 20:48:25
 68131-77-1C5/C9 copolymer hydrocarbon resin PUYNAG JITENG CHEMICAL CO.,LTD.2019/3/26 20:47:17
 69430-35-9hydrogenated hydrocarbon resin PUYNAG JITENG CHEMICAL CO.,LTD.2019/3/26 20:45:55
 80-00-2STRAIGHT SHANK Xinchang Junnuo Tools Technology Co., Ltd.2019/3/25 15:42:00
 50-00-1Rubber Corrugated Sidewall Conveyor Belt Shandong Aolong Group2019/3/25 10:23:25
 90-00-2Fermenter Shanghai HengCheng Beverage Equipment Co., Ltd2019/3/21 15:44:09
 80-00-2Rain shower set Ningbo Xinlijie Metal Products Corporation Ltd2019/3/21 15:18:25
 837231-31-2E-BK crystal /CAS NO.58-22-0/skype: supplyrcs Wuhan Reessen Bio-Chemical co., ltd2019/3/21 11:21:36
 439-14-5Diazepam /439-14-5/skype:cherry_1712 Wuhan Reessen Bio-Chemical co., ltd2019/3/21 11:21:36
 72242-03-65FUR144/72242-03-6/skype:cherry_1712 Wuhan Reessen Bio-Chemical co., ltd2019/3/21 11:21:36
 695213-59-3SDB-006/695213-59-3 /skype:cherry_1712 Wuhan Reessen Bio-Chemical co., ltd2019/3/21 11:21:36
 13415-55-9PV8 /13415-55-9/[skaɪp]: cherry_1712 Wuhan Reessen Bio-Chemical co., ltd2019/3/21 11:21:36
 14530-33-7A-PVP /14530-33-7/SKYPE: cherry_1712 Wuhan Reessen Bio-Chemical co., ltd2019/3/21 11:21:36
 1112937-64-0NM2201/1112937-64-0/skype:cherry_1712 Wuhan Reessen Bio-Chemical co., ltd2019/3/21 11:21:36
 1364933-55-0THJ018/1364933-55-0 /skype:cherry_1712 Wuhan Reessen Bio-Chemical co., ltd2019/3/21 11:21:36
 1239943-76-0MXE/1239943-76-0/skype:cherry_1712 Wuhan Reessen Bio-Chemical co., ltd2019/3/21 11:21:36
 1345973-53-6 AKB48 /1345973-53-6/skype:cherry_1712 Wuhan Reessen Bio-Chemical co., ltd2019/3/21 11:21:36
 9001-92-7Neutral Protease for Beer Brewing (Food Grade) Creative Enzymes2019/3/19 10:01:08
 9025-57-4Xylanase for baking Creative Enzymes2019/3/19 10:00:43
 9001-73-4Papain Creative Enzymes2019/3/19 10:00:19
 9001-92-7Neutral Protease for pet food Creative Enzymes2019/3/19 9:59:57
 9012-54-8Cellulase for baking Creative Enzymes2019/3/19 9:59:30
 9025-56-3Hemicellulase for baking Creative Enzymes2019/3/19 9:59:02
 9000-90-2α-amylase for baking Creative Enzymes2019/3/19 9:58:29
 37278-89-0Xylanase for Mash Viscosity Reduction and Xylan hydrolysis Creative Enzymes2019/3/19 9:57:56
 9000-90-2Thermostable α-Amylase for Liquefaction in Starch Industry Creative Enzymes2019/3/19 9:57:29
 9000-90-2High-temperature α-amylase for Alcohol Industry Creative Enzymes2019/3/19 9:56:58
 37025-55-1Carbetocin Acetate Creative Peptides 12019/3/19 9:52:21
 47931-85-1Calcitonin (salmon) Creative Peptides 12019/3/19 9:51:52
 57982-77-1Buserelin Acetate Creative Peptides 12019/3/19 9:51:24
 138890-62-7Brinzolamide Creative Peptides 12019/3/19 9:50:55
 189691-06-3Bremelanotide Creative Peptides 12019/3/19 9:50:28
 124584-08-3Brain Natriuretic Peptide, Human Creative Peptides 12019/3/19 9:49:52
 6846-03-3Bradykinin Acetate Creative Peptides 12019/3/19 9:49:21
 128270-60-0Bivalirudin Trifluoroacetate Creative Peptides 12019/3/19 9:48:55
 40077-57-4Aviptadil Acetate Creative Peptides 12019/3/19 9:48:19
 90779-69-4Atosiban Creative Peptides 12019/3/19 9:47:53
 82248-59-7Atomoxetine Hydrochloride 1Creative Peptides2019/3/19 9:45:09
 113-79-1Argipressin 1Creative Peptides2019/3/19 9:44:36
 91-75-8Antazoline Hydrochloride Ph. Eur. 1Creative Peptides2019/3/19 9:43:58
 4474-91-3Angiotensin II Acetate 1Creative Peptides2019/3/19 9:43:22
 79561-22-1Alarelin acetate 1Creative Peptides2019/3/19 9:42:47
 75921-69-6Afamelanotide acetate 1Creative Peptides2019/3/19 9:42:17
Total:4567 Page 3 of 46 << Previous 1 2 3 4 5 6 7 8 9 10 11 Next >>